^^
Station Historical Data
Daily Summary for May 16, 2019 Units:  Both    English   Metric
« Previous Day
Next Day »
Daily Weekly Monthly Yearly Custom
  High: Low: Average:
Temperature: 61.1 °F /  16.2 °C 44.7 °F /  7.1 °C 53.6 °F /  12 °C
Dew Point: 49.7 °F /  9.8 °C 29.7 °F /  -1.3 °C 40.1 °F /  4.5 °C
Humidity: 91% 32% 63%
Wind Speed: 24mph /  38.6km/h - 11.9mph /  19.2km/h
Wind Gust: 28mph /  45.1km/h - -
Wind- - SE
Pressure: 29.86 in /  1011.1 hPa 29.55 in /  1000.6 hPa -
Precipitation: 0 in /  0 mm    
Historical Graphs
 
 
Tabular Data for May 16, 2019
Time Temperature Dew Point Pressure Wind Wind Speed Wind Gust Humidity Rainfall Rate (Hourly) solar Conditions
00:04 61.1 °F /  16.2 °C 49.7 °F /  9.8 °C 29.55in /  1000.6hPa WSW 2mph /  3.2km/h 4mph /  6.4km/h 66% 0in /  0mm 0.00 W/m2
00:09 61 °F /  16.1 °C 49.6 °F /  9.8 °C 29.55in /  1000.6hPa WSW 3mph /  4.8km/h 4mph /  6.4km/h 66% 0in /  0mm 0.00 W/m2
00:14 61 °F /  16.1 °C 49.6 °F /  9.8 °C 29.55in /  1000.6hPa West 4mph /  6.4km/h 4mph /  6.4km/h 66% 0in /  0mm 0.00 W/m2
00:19 60.6 °F /  15.9 °C 49.2 °F /  9.6 °C 29.57in /  1001.2hPa NW 10mph /  16.1km/h 11mph /  17.7km/h 66% 0in /  0mm 0.00 W/m2
00:24 59.9 °F /  15.5 °C 48.5 °F /  9.2 °C 29.57in /  1001.2hPa NW 15mph /  24.1km/h 16mph /  25.7km/h 66% 0in /  0mm 0.00 W/m2
00:29 59.6 °F /  15.3 °C 48.2 °F /  9 °C 29.57in /  1001.2hPa NW 9mph /  14.5km/h 16mph /  25.7km/h 66% 0in /  0mm 0.00 W/m2
00:34 59.5 °F /  15.3 °C 48.1 °F /  8.9 °C 29.57in /  1001.2hPa NNW 9mph /  14.5km/h 16mph /  25.7km/h 66% 0in /  0mm 0.00 W/m2
00:39 59.6 °F /  15.3 °C 48.2 °F /  9 °C 29.58in /  1001.6hPa NW 14mph /  22.5km/h 16mph /  25.7km/h 66% 0in /  0mm 0.00 W/m2
00:44 59.8 °F /  15.4 °C 47.6 °F /  8.7 °C 29.57in /  1001.2hPa NNW 13mph /  20.9km/h 16mph /  25.7km/h 64% 0in /  0mm 0.00 W/m2
00:49 60.3 °F /  15.7 °C 46.8 °F /  8.2 °C 29.58in /  1001.6hPa NW 13mph /  20.9km/h 16mph /  25.7km/h 61% 0in /  0mm 0.00 W/m2
00:54 60.4 °F /  15.8 °C 46.9 °F /  8.3 °C 29.58in /  1001.6hPa NW 13mph /  20.9km/h 16mph /  25.7km/h 61% 0in /  0mm 0.00 W/m2
00:59 60.3 °F /  15.7 °C 46.8 °F /  8.2 °C 29.58in /  1001.6hPa NNW 10mph /  16.1km/h 16mph /  25.7km/h 61% 0in /  0mm 0.00 W/m2
01:04 59.8 °F /  15.4 °C 46.7 °F /  8.2 °C 29.59in /  1001.9hPa NW 3mph /  4.8km/h 16mph /  25.7km/h 62% 0in /  0mm 0.00 W/m2
01:09 59.1 °F /  15.1 °C 46.5 °F /  8.1 °C 29.59in /  1001.9hPa NW 7mph /  11.3km/h 12mph /  19.3km/h 63% 0in /  0mm 0.00 W/m2
01:14 58.7 °F /  14.8 °C 46.1 °F /  7.8 °C 29.59in /  1001.9hPa WNW 4mph /  6.4km/h 12mph /  19.3km/h 63% 0in /  0mm 0.00 W/m2
01:19 58.2 °F /  14.6 °C 46.1 °F /  7.8 °C 29.60in /  1002.3hPa WNW 4mph /  6.4km/h 9mph /  14.5km/h 64% 0in /  0mm 0.00 W/m2
01:24 57.6 °F /  14.2 °C 46.3 °F /  7.9 °C 29.60in /  1002.3hPa West 4mph /  6.4km/h 9mph /  14.5km/h 66% 0in /  0mm 0.00 W/m2
01:29 57 °F /  13.9 °C 45.7 °F /  7.6 °C 29.60in /  1002.3hPa West 4mph /  6.4km/h 9mph /  14.5km/h 66% 0in /  0mm 0.00 W/m2
01:34 56.7 °F /  13.7 °C 45.9 °F /  7.7 °C 29.60in /  1002.3hPa WNW 7mph /  11.3km/h 10mph /  16.1km/h 67% 0in /  0mm 0.00 W/m2
01:39 57.1 °F /  13.9 °C 46.2 °F /  7.9 °C 29.60in /  1002.3hPa NW 10mph /  16.1km/h 11mph /  17.7km/h 67% 0in /  0mm 0.00 W/m2
01:44 56.9 °F /  13.8 °C 46.4 °F /  8 °C 29.60in /  1002.3hPa NNW 6mph /  9.7km/h 12mph /  19.3km/h 68% 0in /  0mm 0.00 W/m2
01:49 56.9 °F /  13.8 °C 46.8 °F /  8.2 °C 29.60in /  1002.3hPa NW 12mph /  19.3km/h 15mph /  24.1km/h 69% 0in /  0mm 0.00 W/m2
01:54 57.1 °F /  13.9 °C 47.4 °F /  8.6 °C 29.60in /  1002.3hPa NNW 12mph /  19.3km/h 16mph /  25.7km/h 70% 0in /  0mm 0.00 W/m2
01:59 57.2 °F /  14 °C 47.5 °F /  8.6 °C 29.60in /  1002.3hPa NNW 12mph /  19.3km/h 16mph /  25.7km/h 70% 0in /  0mm 0.00 W/m2
02:04 57.3 °F /  14.1 °C 47.6 °F /  8.7 °C 29.60in /  1002.3hPa North 13mph /  20.9km/h 20mph /  32.2km/h 70% 0in /  0mm 0.00 W/m2
02:09 57.4 °F /  14.1 °C 47.7 °F /  8.7 °C 29.60in /  1002.3hPa NNW 15mph /  24.1km/h 22mph /  35.4km/h 70% 0in /  0mm 0.00 W/m2
02:14 57.7 °F /  14.3 °C 47.6 °F /  8.7 °C 29.60in /  1002.3hPa NNW 14mph /  22.5km/h 22mph /  35.4km/h 69% 0in /  0mm 0.00 W/m2
02:19 57.6 °F /  14.2 °C 47.1 °F /  8.4 °C 29.60in /  1002.3hPa NW 14mph /  22.5km/h 22mph /  35.4km/h 68% 0in /  0mm 0.00 W/m2
02:24 57.5 °F /  14.2 °C 47 °F /  8.3 °C 29.61in /  1002.6hPa NNW 15mph /  24.1km/h 22mph /  35.4km/h 68% 0in /  0mm 0.00 W/m2
02:29 57.2 °F /  14 °C 47.1 °F /  8.4 °C 29.61in /  1002.6hPa NW 6mph /  9.7km/h 19mph /  30.6km/h 69% 0in /  0mm 0.00 W/m2
02:34 56.8 °F /  13.8 °C 47.9 °F /  8.8 °C 29.61in /  1002.6hPa NW 13mph /  20.9km/h 19mph /  30.6km/h 72% 0in /  0mm 0.00 W/m2
02:39 56.8 °F /  13.8 °C 47.1 °F /  8.4 °C 29.61in /  1002.6hPa NW 12mph /  19.3km/h 19mph /  30.6km/h 70% 0in /  0mm 0.00 W/m2
02:44 56.6 °F /  13.7 °C 47.3 °F /  8.5 °C 29.61in /  1002.6hPa NW 9mph /  14.5km/h 19mph /  30.6km/h 71% 0in /  0mm 0.00 W/m2
02:49 56.2 °F /  13.4 °C 46.9 °F /  8.3 °C 29.62in /  1002.9hPa NW 10mph /  16.1km/h 19mph /  30.6km/h 71% 0in /  0mm 0.00 W/m2
02:54 55.8 °F /  13.2 °C 46.5 °F /  8.1 °C 29.62in /  1002.9hPa NW 8mph /  12.9km/h 19mph /  30.6km/h 71% 0in /  0mm 0.00 W/m2
02:59 55.5 °F /  13.1 °C 46.6 °F /  8.1 °C 29.62in /  1002.9hPa NW 11mph /  17.7km/h 19mph /  30.6km/h 72% 0in /  0mm 0.00 W/m2
03:04 55.3 °F /  12.9 °C 46.4 °F /  8 °C 29.63in /  1003.3hPa NNW 10mph /  16.1km/h 18mph /  29km/h 72% 0in /  0mm 0.00 W/m2
03:09 54.8 °F /  12.7 °C 46.3 °F /  7.9 °C 29.63in /  1003.3hPa NNW 11mph /  17.7km/h 18mph /  29km/h 73% 0in /  0mm 0.00 W/m2
03:14 54.6 °F /  12.6 °C 46.5 °F /  8.1 °C 29.63in /  1003.3hPa NNW 11mph /  17.7km/h 18mph /  29km/h 74% 0in /  0mm 0.00 W/m2
03:19 54.3 °F /  12.4 °C 46.5 °F /  8.1 °C 29.63in /  1003.3hPa NW 16mph /  25.7km/h 17mph /  27.4km/h 75% 0in /  0mm 0.00 W/m2
03:24 54.1 °F /  12.3 °C 46.3 °F /  7.9 °C 29.63in /  1003.3hPa NW 11mph /  17.7km/h 19mph /  30.6km/h 75% 0in /  0mm 0.00 W/m2
03:29 53.7 °F /  12.1 °C 46.7 °F /  8.2 °C 29.64in /  1003.6hPa NW 15mph /  24.1km/h 19mph /  30.6km/h 77% 0in /  0mm 0.00 W/m2
03:34 53.6 °F /  12 °C 46.9 °F /  8.3 °C 29.64in /  1003.6hPa NW 12mph /  19.3km/h 20mph /  32.2km/h 78% 0in /  0mm 0.00 W/m2
03:39 53.4 °F /  11.9 °C 47.4 °F /  8.6 °C 29.64in /  1003.6hPa NW 14mph /  22.5km/h 20mph /  32.2km/h 80% 0in /  0mm 0.00 W/m2
03:44 53.5 °F /  11.9 °C 48.1 °F /  8.9 °C 29.64in /  1003.6hPa NW 16mph /  25.7km/h 21mph /  33.8km/h 82% 0in /  0mm 0.00 W/m2
03:49 53.5 °F /  11.9 °C 48.5 °F /  9.2 °C 29.65in /  1003.9hPa NW 8mph /  12.9km/h 21mph /  33.8km/h 83% 0in /  0mm 0.00 W/m2
03:54 53.5 °F /  11.9 °C 48.5 °F /  9.2 °C 29.65in /  1003.9hPa NNW 13mph /  20.9km/h 21mph /  33.8km/h 83% 0in /  0mm 0.00 W/m2
03:59 53.7 °F /  12.1 °C 49 °F /  9.4 °C 29.65in /  1003.9hPa NNW 10mph /  16.1km/h 21mph /  33.8km/h 84% 0in /  0mm 0.00 W/m2
04:04 53.8 °F /  12.1 °C 49.1 °F /  9.5 °C 29.65in /  1003.9hPa NNW 12mph /  19.3km/h 20mph /  32.2km/h 84% 0in /  0mm 0.00 W/m2
04:09 53.8 °F /  12.1 °C 49.1 °F /  9.5 °C 29.65in /  1003.9hPa NW 20mph /  32.2km/h 20mph /  32.2km/h 84% 0in /  0mm 0.00 W/m2
04:14 53.8 °F /  12.1 °C 49.1 °F /  9.5 °C 29.66in /  1004.3hPa NNW 20mph /  32.2km/h 22mph /  35.4km/h 84% 0in /  0mm 0.00 W/m2
04:19 53.5 °F /  11.9 °C 48.8 °F /  9.3 °C 29.66in /  1004.3hPa NNW 13mph /  20.9km/h 27mph /  43.5km/h 84% 0in /  0mm 0.00 W/m2
04:24 53.2 °F /  11.8 °C 48.5 °F /  9.2 °C 29.66in /  1004.3hPa NNW 16mph /  25.7km/h 27mph /  43.5km/h 84% 0in /  0mm 0.00 W/m2
04:29 52.9 °F /  11.6 °C 48.2 °F /  9 °C 29.66in /  1004.3hPa NW 13mph /  20.9km/h 27mph /  43.5km/h 84% 0in /  0mm 0.00 W/m2
04:34 52.7 °F /  11.5 °C 48.3 °F /  9.1 °C 29.66in /  1004.3hPa NW 18mph /  29km/h 27mph /  43.5km/h 85% 0in /  0mm 0.00 W/m2
04:39 52.4 °F /  11.3 °C 48 °F /  8.9 °C 29.67in /  1004.6hPa NNW 15mph /  24.1km/h 23mph /  37km/h 85% 0in /  0mm 0.00 W/m2
04:44 52 °F /  11.1 °C 47.3 °F /  8.5 °C 29.67in /  1004.6hPa NNW 14mph /  22.5km/h 23mph /  37km/h 84% 0in /  0mm 0.00 W/m2
04:49 51.4 °F /  10.8 °C 46.7 °F /  8.2 °C 29.67in /  1004.6hPa NW 24mph /  38.6km/h 24mph /  38.6km/h 84% 0in /  0mm 0.00 W/m2
04:54 51 °F /  10.6 °C 46.6 °F /  8.1 °C 29.68in /  1005hPa NNW 15mph /  24.1km/h 24mph /  38.6km/h 85% 0in /  0mm 0.00 W/m2
04:59 50.6 °F /  10.3 °C 46.3 °F /  7.9 °C 29.68in /  1005hPa NNW 15mph /  24.1km/h 24mph /  38.6km/h 85% 0in /  0mm 0.00 W/m2
05:04 50.3 °F /  10.2 °C 46 °F /  7.8 °C 29.68in /  1005hPa NW 15mph /  24.1km/h 24mph /  38.6km/h 85% 0in /  0mm 0.00 W/m2
05:09 50.1 °F /  10.1 °C 46.1 °F /  7.8 °C 29.68in /  1005hPa NW 18mph /  29km/h 26mph /  41.8km/h 86% 0in /  0mm 0.00 W/m2
05:14 50 °F /  10 °C 46 °F /  7.8 °C 29.69in /  1005.3hPa NNW 14mph /  22.5km/h 26mph /  41.8km/h 86% 0in /  0mm 0.00 W/m2
05:19 49.9 °F /  9.9 °C 45.9 °F /  7.7 °C 29.69in /  1005.3hPa NNW 11mph /  17.7km/h 26mph /  41.8km/h 86% 0in /  0mm 0.00 W/m2
05:24 49.7 °F /  9.8 °C 45.7 °F /  7.6 °C 29.69in /  1005.3hPa NNW 22mph /  35.4km/h 26mph /  41.8km/h 86% 0in /  0mm 0.00 W/m2
05:29 49.4 °F /  9.7 °C 45.4 °F /  7.4 °C 29.69in /  1005.3hPa NNW 18mph /  29km/h 26mph /  41.8km/h 86% 0in /  0mm 0.00 W/m2
05:34 49.2 °F /  9.6 °C 45.5 °F /  7.5 °C 29.69in /  1005.3hPa NNW 21mph /  33.8km/h 26mph /  41.8km/h 87% 0in /  0mm 0.00 W/m2
05:39 48.9 °F /  9.4 °C 45.2 °F /  7.3 °C 29.69in /  1005.3hPa NNW 13mph /  20.9km/h 25mph /  40.2km/h 87% 0in /  0mm 0.00 W/m2
05:44 48.7 °F /  9.3 °C 45 °F /  7.2 °C 29.69in /  1005.3hPa NNW 21mph /  33.8km/h 26mph /  41.8km/h 87% 0in /  0mm 0.00 W/m2
05:49 48.5 °F /  9.2 °C 45.1 °F /  7.3 °C 29.69in /  1005.3hPa NNW 22mph /  35.4km/h 26mph /  41.8km/h 88% 0in /  0mm 0.00 W/m2
05:54 48.5 °F /  9.2 °C 45.1 °F /  7.3 °C 29.69in /  1005.3hPa NNW 18mph /  29km/h 26mph /  41.8km/h 88% 0in /  0mm 0.00 W/m2
05:59 48.2 °F /  9 °C 44.8 °F /  7.1 °C 29.69in /  1005.3hPa NNW 21mph /  33.8km/h 28mph /  45.1km/h 88% 0in /  0mm 0.00 W/m2
06:04 47.9 °F /  8.8 °C 44.5 °F /  6.9 °C 29.70in /  1005.6hPa North 12mph /  19.3km/h 28mph /  45.1km/h 88% 0in /  0mm 0.00 W/m2
06:09 47.7 °F /  8.7 °C 44.3 °F /  6.8 °C 29.70in /  1005.6hPa NNW 24mph /  38.6km/h 28mph /  45.1km/h 88% 0in /  0mm 0.00 W/m2
06:14 47.4 °F /  8.6 °C 44 °F /  6.7 °C 29.71in /  1006hPa NNW 16mph /  25.7km/h 28mph /  45.1km/h 88% 0in /  0mm 5.00 W/m2
06:19 47.3 °F /  8.5 °C 44.2 °F /  6.8 °C 29.71in /  1006hPa NNW 17mph /  27.4km/h 25mph /  40.2km/h 89% 0in /  0mm 5.00 W/m2
06:24 47.2 °F /  8.4 °C 44.1 °F /  6.7 °C 29.72in /  1006.3hPa NNW 15mph /  24.1km/h 25mph /  40.2km/h 89% 0in /  0mm 7.00 W/m2
06:29 47 °F /  8.3 °C 43.9 °F /  6.6 °C 29.71in /  1006hPa NNW 12mph /  19.3km/h 21mph /  33.8km/h 89% 0in /  0mm 9.00 W/m2
06:34 47 °F /  8.3 °C 43.9 °F /  6.6 °C 29.72in /  1006.3hPa North 16mph /  25.7km/h 20mph /  32.2km/h 89% 0in /  0mm 14.00 W/m2
06:39 46.9 °F /  8.3 °C 43.8 °F /  6.6 °C 29.72in /  1006.3hPa NNW 15mph /  24.1km/h 20mph /  32.2km/h 89% 0in /  0mm 14.00 W/m2
06:44 46.8 °F /  8.2 °C 43.7 °F /  6.5 °C 29.73in /  1006.7hPa NNW 12mph /  19.3km/h 23mph /  37km/h 89% 0in /  0mm 18.00 W/m2
06:49 46.7 °F /  8.2 °C 43.9 °F /  6.6 °C 29.74in /  1007hPa NNW 11mph /  17.7km/h 23mph /  37km/h 90% 0in /  0mm 25.00 W/m2
06:54 46.6 °F /  8.1 °C 43.8 °F /  6.6 °C 29.74in /  1007hPa NNW 16mph /  25.7km/h 20mph /  32.2km/h 90% 0in /  0mm 26.00 W/m2
06:59 46.5 °F /  8.1 °C 43.7 °F /  6.5 °C 29.74in /  1007hPa NNW 13mph /  20.9km/h 24mph /  38.6km/h 90% 0in /  0mm 25.00 W/m2
07:04 46.5 °F /  8.1 °C 43.7 °F /  6.5 °C 29.75in /  1007.3hPa NNW 13mph /  20.9km/h 24mph /  38.6km/h 90% 0in /  0mm 21.00 W/m2
07:09 46.5 °F /  8.1 °C 43.7 °F /  6.5 °C 29.75in /  1007.3hPa NNW 16mph /  25.7km/h 24mph /  38.6km/h 90% 0in /  0mm 19.00 W/m2
07:14 46.4 °F /  8 °C 43.6 °F /  6.4 °C 29.75in /  1007.3hPa NNW 14mph /  22.5km/h 24mph /  38.6km/h 90% 0in /  0mm 18.00 W/m2
07:19 46.4 °F /  8 °C 43.6 °F /  6.4 °C 29.76in /  1007.7hPa North 12mph /  19.3km/h 21mph /  33.8km/h 90% 0in /  0mm 19.00 W/m2
07:24 46.5 °F /  8.1 °C 43.7 °F /  6.5 °C 29.76in /  1007.7hPa NNW 18mph /  29km/h 21mph /  33.8km/h 90% 0in /  0mm 23.00 W/m2
07:29 46.4 °F /  8 °C 43.3 °F /  6.3 °C 29.75in /  1007.3hPa North 15mph /  24.1km/h 23mph /  37km/h 89% 0in /  0mm 23.00 W/m2
07:34 46.3 °F /  7.9 °C 43.2 °F /  6.2 °C 29.76in /  1007.7hPa North 16mph /  25.7km/h 23mph /  37km/h 89% 0in /  0mm 26.00 W/m2
07:39 46.1 °F /  7.8 °C 43.3 °F /  6.3 °C 29.76in /  1007.7hPa NNW 14mph /  22.5km/h 22mph /  35.4km/h 90% 0in /  0mm 30.00 W/m2
07:44 46 °F /  7.8 °C 43.2 °F /  6.2 °C 29.76in /  1007.7hPa NNW 16mph /  25.7km/h 22mph /  35.4km/h 90% 0in /  0mm 33.00 W/m2
07:49 45.8 °F /  7.7 °C 43 °F /  6.1 °C 29.76in /  1007.7hPa NNW 15mph /  24.1km/h 21mph /  33.8km/h 90% 0in /  0mm 28.00 W/m2
07:54 45.8 °F /  7.7 °C 43 °F /  6.1 °C 29.77in /  1008hPa North 17mph /  27.4km/h 21mph /  33.8km/h 90% 0in /  0mm 30.00 W/m2
07:59 45.8 °F /  7.7 °C 43 °F /  6.1 °C 29.77in /  1008hPa North 14mph /  22.5km/h 21mph /  33.8km/h 90% 0in /  0mm 35.00 W/m2
08:04 45.8 °F /  7.7 °C 43 °F /  6.1 °C 29.77in /  1008hPa North 14mph /  22.5km/h 20mph /  32.2km/h 90% 0in /  0mm 33.00 W/m2
08:09 45.8 °F /  7.7 °C 43.3 °F /  6.3 °C 29.77in /  1008hPa North 18mph /  29km/h 21mph /  33.8km/h 91% 0in /  0mm 35.00 W/m2
08:14 45.8 °F /  7.7 °C 43 °F /  6.1 °C 29.78in /  1008.4hPa NNE 17mph /  27.4km/h 21mph /  33.8km/h 90% 0in /  0mm 30.00 W/m2
08:19 45.8 °F /  7.7 °C 43.3 °F /  6.3 °C 29.78in /  1008.4hPa NNE 9mph /  14.5km/h 22mph /  35.4km/h 91% 0in /  0mm 28.00 W/m2
08:24 45.6 °F /  7.6 °C 43.1 °F /  6.2 °C 29.78in /  1008.4hPa NNE 9mph /  14.5km/h 22mph /  35.4km/h 91% 0in /  0mm 35.00 W/m2
08:29 45.4 °F /  7.4 °C 42.9 °F /  6.1 °C 29.79in /  1008.7hPa NNE 11mph /  17.7km/h 22mph /  35.4km/h 91% 0in /  0mm 40.00 W/m2
08:34 45.3 °F /  7.4 °C 42.8 °F /  6 °C 29.80in /  1009hPa NNE 8mph /  12.9km/h 22mph /  35.4km/h 91% 0in /  0mm 47.00 W/m2
08:39 45.2 °F /  7.3 °C 42.7 °F /  5.9 °C 29.80in /  1009hPa NNE 12mph /  19.3km/h 18mph /  29km/h 91% 0in /  0mm 67.00 W/m2
08:44 45.1 °F /  7.3 °C 42.6 °F /  5.9 °C 29.79in /  1008.7hPa NNE 11mph /  17.7km/h 18mph /  29km/h 91% 0in /  0mm 67.00 W/m2
08:49 44.9 °F /  7.2 °C 42.4 °F /  5.8 °C 29.79in /  1008.7hPa NE 16mph /  25.7km/h 21mph /  33.8km/h 91% 0in /  0mm 67.00 W/m2
08:54 44.9 °F /  7.2 °C 42.4 °F /  5.8 °C 29.79in /  1008.7hPa NNE 15mph /  24.1km/h 21mph /  33.8km/h 91% 0in /  0mm 84.00 W/m2
08:59 44.8 °F /  7.1 °C 42 °F /  5.6 °C 29.79in /  1008.7hPa NNE 20mph /  32.2km/h 25mph /  40.2km/h 90% 0in /  0mm 104.00 W/m2
09:04 44.8 °F /  7.1 °C 42 °F /  5.6 °C 29.79in /  1008.7hPa NNE 17mph /  27.4km/h 25mph /  40.2km/h 90% 0in /  0mm 135.00 W/m2
09:09 44.9 °F /  7.2 °C 42.1 °F /  5.6 °C 29.79in /  1008.7hPa NNE 15mph /  24.1km/h 25mph /  40.2km/h 90% 0in /  0mm 121.00 W/m2
09:14 44.9 °F /  7.2 °C 41.9 °F /  5.5 °C 29.79in /  1008.7hPa NE 15mph /  24.1km/h 25mph /  40.2km/h 89% 0in /  0mm 111.00 W/m2
09:19 44.8 °F /  7.1 °C 41.8 °F /  5.4 °C 29.79in /  1008.7hPa NNE 11mph /  17.7km/h 23mph /  37km/h 89% 0in /  0mm 123.00 W/m2
09:24 44.7 °F /  7.1 °C 41.4 °F /  5.2 °C 29.79in /  1008.7hPa NE 16mph /  25.7km/h 25mph /  40.2km/h 88% 0in /  0mm 125.00 W/m2
09:29 44.8 °F /  7.1 °C 41.5 °F /  5.3 °C 29.80in /  1009hPa NNE 17mph /  27.4km/h 25mph /  40.2km/h 88% 0in /  0mm 109.00 W/m2
09:34 45 °F /  7.2 °C 41.7 °F /  5.4 °C 29.80in /  1009hPa NNE 22mph /  35.4km/h 23mph /  37km/h 88% 0in /  0mm 104.00 W/m2
09:39 44.9 °F /  7.2 °C 41.6 °F /  5.3 °C 29.80in /  1009hPa North 14mph /  22.5km/h 26mph /  41.8km/h 88% 0in /  0mm 116.00 W/m2
09:44 45.1 °F /  7.3 °C 41.5 °F /  5.3 °C 29.81in /  1009.4hPa NNE 19mph /  30.6km/h 28mph /  45.1km/h 87% 0in /  0mm 299.00 W/m2
09:49 45.6 °F /  7.6 °C 41.7 °F /  5.4 °C 29.81in /  1009.4hPa North 16mph /  25.7km/h 28mph /  45.1km/h 86% 0in /  0mm 202.00 W/m2
09:54 46.1 °F /  7.8 °C 41.5 °F /  5.3 °C 29.82in /  1009.7hPa NE 15mph /  24.1km/h 26mph /  41.8km/h 84% 0in /  0mm 232.00 W/m2
09:59 46.4 °F /  8 °C 41.5 °F /  5.3 °C 29.82in /  1009.7hPa NNE 12mph /  19.3km/h 26mph /  41.8km/h 83% 0in /  0mm 206.00 W/m2
10:04 46.7 °F /  8.2 °C 41.8 °F /  5.4 °C 29.82in /  1009.7hPa NNE 20mph /  32.2km/h 22mph /  35.4km/h 83% 0in /  0mm 278.00 W/m2
10:09 47 °F /  8.3 °C 41.8 °F /  5.4 °C 29.82in /  1009.7hPa North 13mph /  20.9km/h 23mph /  37km/h 82% 0in /  0mm 322.00 W/m2
10:14 47.1 °F /  8.4 °C 41.6 °F /  5.3 °C 29.82in /  1009.7hPa NNE 14mph /  22.5km/h 23mph /  37km/h 81% 0in /  0mm 279.00 W/m2
10:19 47.3 °F /  8.5 °C 41.8 °F /  5.4 °C 29.82in /  1009.7hPa NNE 16mph /  25.7km/h 20mph /  32.2km/h 81% 0in /  0mm 345.00 W/m2
10:24 47.6 °F /  8.7 °C 42.1 °F /  5.6 °C 29.82in /  1009.7hPa NNE 13mph /  20.9km/h 20mph /  32.2km/h 81% 0in /  0mm 260.00 W/m2
10:29 47.6 °F /  8.7 °C 41.7 °F /  5.4 °C 29.83in /  1010hPa NNE 10mph /  16.1km/h 20mph /  32.2km/h 80% 0in /  0mm 144.00 W/m2
10:34 47.2 °F /  8.4 °C 41.3 °F /  5.2 °C 29.83in /  1010hPa NE 16mph /  25.7km/h 20mph /  32.2km/h 80% 0in /  0mm 181.00 W/m2
10:39 46.8 °F /  8.2 °C 41 °F /  5 °C 29.83in /  1010hPa ENE 12mph /  19.3km/h 22mph /  35.4km/h 80% 0in /  0mm 367.00 W/m2
10:44 46.8 °F /  8.2 °C 41 °F /  5 °C 29.83in /  1010hPa NNE 15mph /  24.1km/h 22mph /  35.4km/h 80% 0in /  0mm 295.00 W/m2
10:49 46.9 °F /  8.3 °C 41.1 °F /  5.1 °C 29.84in /  1010.4hPa NE 17mph /  27.4km/h 20mph /  32.2km/h 80% 0in /  0mm 186.00 W/m2
10:54 46.7 °F /  8.2 °C 40.9 °F /  4.9 °C 29.83in /  1010hPa NE 19mph /  30.6km/h 21mph /  33.8km/h 80% 0in /  0mm 246.00 W/m2
10:59 46.9 °F /  8.3 °C 40.7 °F /  4.8 °C 29.83in /  1010hPa NE 18mph /  29km/h 21mph /  33.8km/h 79% 0in /  0mm 346.00 W/m2
11:04 47.4 °F /  8.6 °C 41.2 °F /  5.1 °C 29.83in /  1010hPa NNE 17mph /  27.4km/h 22mph /  35.4km/h 79% 0in /  0mm 318.00 W/m2
11:09 47.8 °F /  8.8 °C 41.3 °F /  5.2 °C 29.84in /  1010.4hPa NNE 14mph /  22.5km/h 25mph /  40.2km/h 78% 0in /  0mm 287.00 W/m2
11:14 47.9 °F /  8.8 °C 40.7 °F /  4.8 °C 29.84in /  1010.4hPa NNE 12mph /  19.3km/h 25mph /  40.2km/h 76% 0in /  0mm 209.00 W/m2
11:19 47.9 °F /  8.8 °C 41 °F /  5 °C 29.84in /  1010.4hPa NE 11mph /  17.7km/h 25mph /  40.2km/h 77% 0in /  0mm 267.00 W/m2
11:24 48.1 °F /  8.9 °C 41.2 °F /  5.1 °C 29.84in /  1010.4hPa NNE 15mph /  24.1km/h 25mph /  40.2km/h 77% 0in /  0mm 394.00 W/m2
11:29 48.5 °F /  9.2 °C 41.3 °F /  5.2 °C 29.84in /  1010.4hPa NE 13mph /  20.9km/h 20mph /  32.2km/h 76% 0in /  0mm 353.00 W/m2
11:34 48.5 °F /  9.2 °C 40.9 °F /  4.9 °C 29.84in /  1010.4hPa ENE 13mph /  20.9km/h 19mph /  30.6km/h 75% 0in /  0mm 320.00 W/m2
11:39 48.3 °F /  9.1 °C 40.4 °F /  4.7 °C 29.84in /  1010.4hPa NE 7mph /  11.3km/h 18mph /  29km/h 74% 0in /  0mm 294.00 W/m2
11:44 48.7 °F /  9.3 °C 40.8 °F /  4.9 °C 29.85in /  1010.7hPa NE 13mph /  20.9km/h 18mph /  29km/h 74% 0in /  0mm 517.00 W/m2
11:49 49.3 °F /  9.6 °C 41 °F /  5 °C 29.85in /  1010.7hPa NE 16mph /  25.7km/h 20mph /  32.2km/h 73% 0in /  0mm 485.00 W/m2
11:54 50.3 °F /  10.2 °C 42.7 °F /  5.9 °C 29.84in /  1010.4hPa NNE 12mph /  19.3km/h 20mph /  32.2km/h 75% 0in /  0mm 559.00 W/m2
11:59 51.2 °F /  10.7 °C 42.5 °F /  5.8 °C 29.84in /  1010.4hPa NNE 21mph /  33.8km/h 21mph /  33.8km/h 72% 0in /  0mm 605.00 W/m2
12:04 51.7 °F /  10.9 °C 42.2 °F /  5.7 °C 29.84in /  1010.4hPa North 15mph /  24.1km/h 23mph /  37km/h 70% 0in /  0mm 540.00 W/m2
12:09 52.1 °F /  11.2 °C 42.6 °F /  5.9 °C 29.84in /  1010.4hPa North 10mph /  16.1km/h 23mph /  37km/h 70% 0in /  0mm 830.00 W/m2
12:14 52.4 °F /  11.3 °C 42.5 °F /  5.8 °C 29.84in /  1010.4hPa North 10mph /  16.1km/h 23mph /  37km/h 69% 0in /  0mm 719.00 W/m2
12:19 52.8 °F /  11.6 °C 43.3 °F /  6.3 °C 29.84in /  1010.4hPa NNE 17mph /  27.4km/h 23mph /  37km/h 70% 0in /  0mm 522.00 W/m2
12:24 53.3 °F /  11.8 °C 43.8 °F /  6.6 °C 29.84in /  1010.4hPa NNE 10mph /  16.1km/h 22mph /  35.4km/h 70% 0in /  0mm 1023.00 W/m2
12:29 54.2 °F /  12.3 °C 44.2 °F /  6.8 °C 29.84in /  1010.4hPa NNE 11mph /  17.7km/h 24mph /  38.6km/h 69% 0in /  0mm 1194.00 W/m2
12:34 54.2 °F /  12.3 °C 42.7 °F /  5.9 °C 29.84in /  1010.4hPa NNE 12mph /  19.3km/h 24mph /  38.6km/h 65% 0in /  0mm 587.00 W/m2
12:39 53.7 °F /  12.1 °C 41 °F /  5 °C 29.84in /  1010.4hPa NNE 13mph /  20.9km/h 24mph /  38.6km/h 62% 0in /  0mm 471.00 W/m2
12:44 53.6 °F /  12 °C 42.1 °F /  5.6 °C 29.84in /  1010.4hPa NE 12mph /  19.3km/h 24mph /  38.6km/h 65% 0in /  0mm 533.00 W/m2
12:49 53.9 °F /  12.2 °C 41.2 °F /  5.1 °C 29.83in /  1010hPa NE 14mph /  22.5km/h 22mph /  35.4km/h 62% 0in /  0mm 496.00 W/m2
12:54 53.8 °F /  12.1 °C 40.7 °F /  4.8 °C 29.84in /  1010.4hPa ENE 8mph /  12.9km/h 22mph /  35.4km/h 61% 0in /  0mm 483.00 W/m2
12:59 53.9 °F /  12.2 °C 41.2 °F /  5.1 °C 29.84in /  1010.4hPa ENE 18mph /  29km/h 22mph /  35.4km/h 62% 0in /  0mm 501.00 W/m2
13:04 54 °F /  12.2 °C 41.3 °F /  5.2 °C 29.84in /  1010.4hPa NE 10mph /  16.1km/h 22mph /  35.4km/h 62% 0in /  0mm 499.00 W/m2
13:09 54.5 °F /  12.5 °C 41.3 °F /  5.2 °C 29.84in /  1010.4hPa NE 11mph /  17.7km/h 19mph /  30.6km/h 61% 0in /  0mm 496.00 W/m2
13:14 54.7 °F /  12.6 °C 40.2 °F /  4.6 °C 29.83in /  1010hPa ENE 6mph /  9.7km/h 21mph /  33.8km/h 58% 0in /  0mm 496.00 W/m2
13:19 55.2 °F /  12.9 °C 41.5 °F /  5.3 °C 29.83in /  1010hPa NNE 9mph /  14.5km/h 21mph /  33.8km/h 60% 0in /  0mm 468.00 W/m2
13:24 55.7 °F /  13.2 °C 42 °F /  5.6 °C 29.83in /  1010hPa NNE 11mph /  17.7km/h 18mph /  29km/h 60% 0in /  0mm 457.00 W/m2
13:29 56 °F /  13.3 °C 41 °F /  5 °C 29.83in /  1010hPa NE 13mph /  20.9km/h 20mph /  32.2km/h 57% 0in /  0mm 492.00 W/m2
13:34 56.3 °F /  13.5 °C 40.3 °F /  4.6 °C 29.83in /  1010hPa NNE 11mph /  17.7km/h 20mph /  32.2km/h 55% 0in /  0mm 515.00 W/m2
13:39 56.5 °F /  13.6 °C 40 °F /  4.4 °C 29.83in /  1010hPa NE 9mph /  14.5km/h 20mph /  32.2km/h 54% 0in /  0mm 552.00 W/m2
13:44 56.8 °F /  13.8 °C 40.8 °F /  4.9 °C 29.84in /  1010.4hPa NNE 11mph /  17.7km/h 20mph /  32.2km/h 55% 0in /  0mm 557.00 W/m2
13:49 56.6 °F /  13.7 °C 39.2 °F /  4 °C 29.84in /  1010.4hPa ENE 14mph /  22.5km/h 20mph /  32.2km/h 52% 0in /  0mm 506.00 W/m2
13:54 56.6 °F /  13.7 °C 40.1 °F /  4.5 °C 29.84in /  1010.4hPa NE 11mph /  17.7km/h 18mph /  29km/h 54% 0in /  0mm 536.00 W/m2
13:59 56.4 °F /  13.6 °C 39.5 °F /  4.2 °C 29.84in /  1010.4hPa NE 12mph /  19.3km/h 18mph /  29km/h 53% 0in /  0mm 571.00 W/m2
14:04 57.3 °F /  14.1 °C 40.8 °F /  4.9 °C 29.84in /  1010.4hPa NE 12mph /  19.3km/h 19mph /  30.6km/h 54% 0in /  0mm 534.00 W/m2
14:09 57.2 °F /  14 °C 39.7 °F /  4.3 °C 29.84in /  1010.4hPa NNE 15mph /  24.1km/h 20mph /  32.2km/h 52% 0in /  0mm 578.00 W/m2
14:14 57.5 °F /  14.2 °C 39.5 °F /  4.2 °C 29.84in /  1010.4hPa NE 11mph /  17.7km/h 20mph /  32.2km/h 51% 0in /  0mm 638.00 W/m2
14:19 58.1 °F /  14.5 °C 41 °F /  5 °C 29.84in /  1010.4hPa ENE 15mph /  24.1km/h 20mph /  32.2km/h 53% 0in /  0mm 1078.00 W/m2
14:24 58.5 °F /  14.7 °C 39.4 °F /  4.1 °C 29.84in /  1010.4hPa NE 10mph /  16.1km/h 20mph /  32.2km/h 49% 0in /  0mm 997.00 W/m2
14:29 58.9 °F /  14.9 °C 39.8 °F /  4.3 °C 29.84in /  1010.4hPa NE 13mph /  20.9km/h 19mph /  30.6km/h 49% 0in /  0mm 969.00 W/m2
14:34 59.3 °F /  15.2 °C 42.2 °F /  5.7 °C 29.84in /  1010.4hPa ENE 12mph /  19.3km/h 19mph /  30.6km/h 53% 0in /  0mm 940.00 W/m2
14:39 59.5 °F /  15.3 °C 40.8 °F /  4.9 °C 29.83in /  1010hPa NE 10mph /  16.1km/h 19mph /  30.6km/h 50% 0in /  0mm 749.00 W/m2
14:44 59.8 °F /  15.4 °C 41.1 °F /  5.1 °C 29.84in /  1010.4hPa NE 9mph /  14.5km/h 19mph /  30.6km/h 50% 0in /  0mm 664.00 W/m2
14:49 59.5 °F /  15.3 °C 38.1 °F /  3.4 °C 29.83in /  1010hPa ENE 4mph /  6.4km/h 19mph /  30.6km/h 45% 0in /  0mm 861.00 W/m2
14:54 59.5 °F /  15.3 °C 38.7 °F /  3.7 °C 29.83in /  1010hPa ENE 11mph /  17.7km/h 17mph /  27.4km/h 46% 0in /  0mm 824.00 W/m2
14:59 59.8 °F /  15.4 °C 41.1 °F /  5.1 °C 29.83in /  1010hPa ENE 9mph /  14.5km/h 17mph /  27.4km/h 50% 0in /  0mm 847.00 W/m2
15:04 59.7 °F /  15.4 °C 39.4 °F /  4.1 °C 29.83in /  1010hPa NE 14mph /  22.5km/h 17mph /  27.4km/h 47% 0in /  0mm 742.00 W/m2
15:09 59.6 °F /  15.3 °C 39.9 °F /  4.4 °C 29.83in /  1010hPa North 12mph /  19.3km/h 17mph /  27.4km/h 48% 0in /  0mm 754.00 W/m2
15:14 60 °F /  15.6 °C 41.3 °F /  5.2 °C 29.83in /  1010hPa NNE 7mph /  11.3km/h 17mph /  27.4km/h 50% 0in /  0mm 733.00 W/m2
15:19 60.4 °F /  15.8 °C 39.5 °F /  4.2 °C 29.83in /  1010hPa ENE 13mph /  20.9km/h 17mph /  27.4km/h 46% 0in /  0mm 838.00 W/m2
15:24 59.4 °F /  15.2 °C 36.9 °F /  2.7 °C 29.83in /  1010hPa ENE 8mph /  12.9km/h 17mph /  27.4km/h 43% 0in /  0mm 752.00 W/m2
15:29 59 °F /  15 °C 38.8 °F /  3.8 °C 29.83in /  1010hPa NE 6mph /  9.7km/h 16mph /  25.7km/h 47% 0in /  0mm 735.00 W/m2
15:34 59.1 °F /  15.1 °C 37.2 °F /  2.9 °C 29.83in /  1010hPa NE 5mph /  8km/h 16mph /  25.7km/h 44% 0in /  0mm 622.00 W/m2
15:39 59.1 °F /  15.1 °C 37.2 °F /  2.9 °C 29.83in /  1010hPa NE 5mph /  8km/h 16mph /  25.7km/h 44% 0in /  0mm 661.00 W/m2
15:44 59.5 °F /  15.3 °C 39.2 °F /  4 °C 29.83in /  1010hPa East 8mph /  12.9km/h 15mph /  24.1km/h 47% 0in /  0mm 578.00 W/m2
15:49 60 °F /  15.6 °C 40.2 °F /  4.6 °C 29.83in /  1010hPa NNE 6mph /  9.7km/h 15mph /  24.1km/h 48% 0in /  0mm 598.00 W/m2
15:54 60.5 °F /  15.8 °C 39.6 °F /  4.2 °C 29.83in /  1010hPa ENE 13mph /  20.9km/h 15mph /  24.1km/h 46% 0in /  0mm 606.00 W/m2
15:59 60.6 °F /  15.9 °C 39.1 °F /  3.9 °C 29.82in /  1009.7hPa ENE 16mph /  25.7km/h 20mph /  32.2km/h 45% 0in /  0mm 584.00 W/m2
16:04 60 °F /  15.6 °C 38 °F /  3.3 °C 29.82in /  1009.7hPa NE 15mph /  24.1km/h 21mph /  33.8km/h 44% 0in /  0mm 564.00 W/m2
16:09 59.9 °F /  15.5 °C 38.5 °F /  3.6 °C 29.82in /  1009.7hPa NNE 14mph /  22.5km/h 21mph /  33.8km/h 45% 0in /  0mm 587.00 W/m2
16:14 59.8 °F /  15.4 °C 36.6 °F /  2.6 °C 29.82in /  1009.7hPa NE 13mph /  20.9km/h 21mph /  33.8km/h 42% 0in /  0mm 675.00 W/m2
16:19 59.5 °F /  15.3 °C 37.6 °F /  3.1 °C 29.82in /  1009.7hPa NNE 11mph /  17.7km/h 21mph /  33.8km/h 44% 0in /  0mm 631.00 W/m2
16:24 59.7 °F /  15.4 °C 37.2 °F /  2.9 °C 29.82in /  1009.7hPa ENE 9mph /  14.5km/h 19mph /  30.6km/h 43% 0in /  0mm 520.00 W/m2
16:29 59.9 °F /  15.5 °C 39.1 °F /  3.9 °C 29.82in /  1009.7hPa North 15mph /  24.1km/h 19mph /  30.6km/h 46% 0in /  0mm 613.00 W/m2
16:34 60.4 °F /  15.8 °C 37.8 °F /  3.2 °C 29.82in /  1009.7hPa NNE 11mph /  17.7km/h 18mph /  29km/h 43% 0in /  0mm 580.00 W/m2
16:39 60.7 °F /  15.9 °C 38.6 °F /  3.7 °C 29.81in /  1009.4hPa NE 8mph /  12.9km/h 18mph /  29km/h 44% 0in /  0mm 601.00 W/m2
16:44 60.7 °F /  15.9 °C 36.8 °F /  2.7 °C 29.81in /  1009.4hPa NE 14mph /  22.5km/h 20mph /  32.2km/h 41% 0in /  0mm 422.00 W/m2
16:49 60.4 °F /  15.8 °C 37.2 °F /  2.9 °C 29.81in /  1009.4hPa NNE 12mph /  19.3km/h 20mph /  32.2km/h 42% 0in /  0mm 675.00 W/m2
16:54 60.9 °F /  16.1 °C 37 °F /  2.8 °C 29.81in /  1009.4hPa NE 9mph /  14.5km/h 20mph /  32.2km/h 41% 0in /  0mm 608.00 W/m2
16:59 60.6 °F /  15.9 °C 35.5 °F /  1.9 °C 29.81in /  1009.4hPa ENE 14mph /  22.5km/h 20mph /  32.2km/h 39% 0in /  0mm 557.00 W/m2
17:04 60.3 °F /  15.7 °C 35.9 °F /  2.2 °C 29.81in /  1009.4hPa NE 13mph /  20.9km/h 19mph /  30.6km/h 40% 0in /  0mm 566.00 W/m2
17:09 60.4 °F /  15.8 °C 35.3 °F /  1.8 °C 29.81in /  1009.4hPa ENE 13mph /  20.9km/h 19mph /  30.6km/h 39% 0in /  0mm 315.00 W/m2
17:14 60.1 °F /  15.6 °C 35 °F /  1.7 °C 29.81in /  1009.4hPa NE 13mph /  20.9km/h 19mph /  30.6km/h 39% 0in /  0mm 425.00 W/m2
17:19 60.1 °F /  15.6 °C 35 °F /  1.7 °C 29.81in /  1009.4hPa NE 9mph /  14.5km/h 19mph /  30.6km/h 39% 0in /  0mm 452.00 W/m2
17:24 60 °F /  15.6 °C 34.3 °F /  1.3 °C 29.81in /  1009.4hPa NE 12mph /  19.3km/h 19mph /  30.6km/h 38% 0in /  0mm 441.00 W/m2
17:29 60.1 °F /  15.6 °C 35 °F /  1.7 °C 29.81in /  1009.4hPa ENE 11mph /  17.7km/h 21mph /  33.8km/h 39% 0in /  0mm 448.00 W/m2
17:34 59.7 °F /  15.4 °C 33.4 °F /  0.8 °C 29.81in /  1009.4hPa East 13mph /  20.9km/h 21mph /  33.8km/h 37% 0in /  0mm 478.00 W/m2
17:39 59.9 °F /  15.5 °C 33.5 °F /  0.8 °C 29.81in /  1009.4hPa ENE 10mph /  16.1km/h 20mph /  32.2km/h 37% 0in /  0mm 480.00 W/m2
17:44 60.2 °F /  15.7 °C 33.8 °F /  1 °C 29.81in /  1009.4hPa ENE 16mph /  25.7km/h 20mph /  32.2km/h 37% 0in /  0mm 462.00 W/m2
17:49 60.1 °F /  15.6 °C 33.7 °F /  0.9 °C 29.81in /  1009.4hPa NE 12mph /  19.3km/h 19mph /  30.6km/h 37% 0in /  0mm 489.00 W/m2
17:54 60.2 °F /  15.7 °C 33.1 °F /  0.6 °C 29.81in /  1009.4hPa East 11mph /  17.7km/h 19mph /  30.6km/h 36% 0in /  0mm 550.00 W/m2
17:59 60.1 °F /  15.6 °C 32.3 °F /  0.2 °C 29.81in /  1009.4hPa East 15mph /  24.1km/h 19mph /  30.6km/h 35% 0in /  0mm 598.00 W/m2
18:04 60.3 °F /  15.7 °C 33.2 °F /  0.7 °C 29.81in /  1009.4hPa ENE 11mph /  17.7km/h 19mph /  30.6km/h 36% 0in /  0mm 554.00 W/m2
18:09 60.3 °F /  15.7 °C 34.6 °F /  1.4 °C 29.81in /  1009.4hPa ENE 6mph /  9.7km/h 17mph /  27.4km/h 38% 0in /  0mm 246.00 W/m2
18:14 59.6 °F /  15.3 °C 29.7 °F /  -1.3 °C 29.81in /  1009.4hPa ENE 10mph /  16.1km/h 18mph /  29km/h 32% 0in /  0mm 213.00 W/m2
18:19 59.2 °F /  15.1 °C 32.2 °F /  0.1 °C 29.81in /  1009.4hPa ENE 10mph /  16.1km/h 18mph /  29km/h 36% 0in /  0mm 489.00 W/m2
18:24 59.5 °F /  15.3 °C 33.2 °F /  0.7 °C 29.81in /  1009.4hPa ENE 10mph /  16.1km/h 18mph /  29km/h 37% 0in /  0mm 438.00 W/m2
18:29 59.6 °F /  15.3 °C 33.3 °F /  0.7 °C 29.82in /  1009.7hPa NE 14mph /  22.5km/h 19mph /  30.6km/h 37% 0in /  0mm 281.00 W/m2
18:34 59.5 °F /  15.3 °C 33.2 °F /  0.7 °C 29.81in /  1009.4hPa ENE 9mph /  14.5km/h 19mph /  30.6km/h 37% 0in /  0mm 364.00 W/m2
18:39 59.5 °F /  15.3 °C 32.5 °F /  0.3 °C 29.81in /  1009.4hPa NE 14mph /  22.5km/h 19mph /  30.6km/h 36% 0in /  0mm 461.00 W/m2
18:44 60 °F /  15.6 °C 33.6 °F /  0.9 °C 29.81in /  1009.4hPa ENE 10mph /  16.1km/h 19mph /  30.6km/h 37% 0in /  0mm 388.00 W/m2
18:49 60.1 °F /  15.6 °C 33.7 °F /  0.9 °C 29.81in /  1009.4hPa East 8mph /  12.9km/h 19mph /  30.6km/h 37% 0in /  0mm 388.00 W/m2
18:54 60.4 °F /  15.8 °C 33.3 °F /  0.7 °C 29.81in /  1009.4hPa ENE 5mph /  8km/h 18mph /  29km/h 36% 0in /  0mm 267.00 W/m2
18:59 60.2 °F /  15.7 °C 33.1 °F /  0.6 °C 29.81in /  1009.4hPa NE 12mph /  19.3km/h 20mph /  32.2km/h 36% 0in /  0mm 390.00 W/m2
19:04 59.8 °F /  15.4 °C 32.8 °F /  0.4 °C 29.81in /  1009.4hPa NE 9mph /  14.5km/h 21mph /  33.8km/h 36% 0in /  0mm 327.00 W/m2
19:09 59.7 °F /  15.4 °C 32 °F /  0 °C 29.81in /  1009.4hPa ENE 9mph /  14.5km/h 21mph /  33.8km/h 35% 0in /  0mm 213.00 W/m2
19:14 59.4 °F /  15.2 °C 33.1 °F /  0.6 °C 29.81in /  1009.4hPa ENE 6mph /  9.7km/h 21mph /  33.8km/h 37% 0in /  0mm 199.00 W/m2
19:19 59.1 °F /  15.1 °C 32.8 °F /  0.4 °C 29.81in /  1009.4hPa NE 16mph /  25.7km/h 21mph /  33.8km/h 37% 0in /  0mm 237.00 W/m2
19:24 58.8 °F /  14.9 °C 32.6 °F /  0.3 °C 29.81in /  1009.4hPa NE 16mph /  25.7km/h 20mph /  32.2km/h 37% 0in /  0mm 239.00 W/m2
19:29 58.7 °F /  14.8 °C 31.8 °F /  -0.1 °C 29.81in /  1009.4hPa ENE 14mph /  22.5km/h 19mph /  30.6km/h 36% 0in /  0mm 199.00 W/m2
19:34 58.4 °F /  14.7 °C 31.5 °F /  -0.3 °C 29.81in /  1009.4hPa East 7mph /  11.3km/h 19mph /  30.6km/h 36% 0in /  0mm 118.00 W/m2
19:39 58.1 °F /  14.5 °C 31.3 °F /  -0.4 °C 29.81in /  1009.4hPa NE 9mph /  14.5km/h 19mph /  30.6km/h 36% 0in /  0mm 176.00 W/m2
19:44 57.9 °F /  14.4 °C 30.4 °F /  -0.9 °C 29.81in /  1009.4hPa ENE 11mph /  17.7km/h 19mph /  30.6km/h 35% 0in /  0mm 74.00 W/m2
19:49 57.5 °F /  14.2 °C 30.7 °F /  -0.7 °C 29.81in /  1009.4hPa ENE 9mph /  14.5km/h 17mph /  27.4km/h 36% 0in /  0mm 62.00 W/m2
19:54 57.1 °F /  13.9 °C 31 °F /  -0.6 °C 29.82in /  1009.7hPa NNE 8mph /  12.9km/h 16mph /  25.7km/h 37% 0in /  0mm 62.00 W/m2
19:59 56.7 °F /  13.7 °C 31.4 °F /  -0.3 °C 29.82in /  1009.7hPa ENE 8mph /  12.9km/h 16mph /  25.7km/h 38% 0in /  0mm 72.00 W/m2
20:04 56.6 °F /  13.7 °C 31.9 °F /  -0.1 °C 29.82in /  1009.7hPa ENE 9mph /  14.5km/h 16mph /  25.7km/h 39% 0in /  0mm 81.00 W/m2
20:09 56.6 °F /  13.7 °C 31.9 °F /  -0.1 °C 29.82in /  1009.7hPa East 9mph /  14.5km/h 16mph /  25.7km/h 39% 0in /  0mm 120.00 W/m2
20:14 56.6 °F /  13.7 °C 32.5 °F /  0.3 °C 29.81in /  1009.4hPa East 13mph /  20.9km/h 14mph /  22.5km/h 40% 0in /  0mm 100.00 W/m2
20:19 56.6 °F /  13.7 °C 33.8 °F /  1 °C 29.82in /  1009.7hPa East 4mph /  6.4km/h 14mph /  22.5km/h 42% 0in /  0mm 81.00 W/m2
20:24 56.2 °F /  13.4 °C 34 °F /  1.1 °C 29.82in /  1009.7hPa ESE 8mph /  12.9km/h 14mph /  22.5km/h 43% 0in /  0mm 30.00 W/m2
20:29 55.6 °F /  13.1 °C 33.4 °F /  0.8 °C 29.82in /  1009.7hPa East 9mph /  14.5km/h 13mph /  20.9km/h 43% 0in /  0mm 26.00 W/m2
20:34 55.1 °F /  12.8 °C 33 °F /  0.6 °C 29.82in /  1009.7hPa East 8mph /  12.9km/h 13mph /  20.9km/h 43% 0in /  0mm 26.00 W/m2
20:39 54.7 °F /  12.6 °C 32.6 °F /  0.3 °C 29.82in /  1009.7hPa East 4mph /  6.4km/h 13mph /  20.9km/h 43% 0in /  0mm 21.00 W/m2
20:44 54.4 °F /  12.4 °C 32.9 °F /  0.5 °C 29.82in /  1009.7hPa East 7mph /  11.3km/h 13mph /  20.9km/h 44% 0in /  0mm 16.00 W/m2
20:49 54.1 °F /  12.3 °C 33.2 °F /  0.7 °C 29.83in /  1010hPa East 7mph /  11.3km/h 13mph /  20.9km/h 45% 0in /  0mm 16.00 W/m2
20:54 53.7 °F /  12.1 °C 32.8 °F /  0.4 °C 29.83in /  1010hPa ESE 8mph /  12.9km/h 13mph /  20.9km/h 45% 0in /  0mm 11.00 W/m2
20:59 53.3 °F /  11.8 °C 33 °F /  0.6 °C 29.83in /  1010hPa East 5mph /  8km/h 13mph /  20.9km/h 46% 0in /  0mm 9.00 W/m2
21:04 53 °F /  11.7 °C 32.8 °F /  0.4 °C 29.84in /  1010.4hPa East 7mph /  11.3km/h 13mph /  20.9km/h 46% 0in /  0mm 7.00 W/m2
21:09 52.7 °F /  11.5 °C 32.5 °F /  0.3 °C 29.84in /  1010.4hPa ENE 4mph /  6.4km/h 13mph /  20.9km/h 46% 0in /  0mm 5.00 W/m2
21:14 52.5 °F /  11.4 °C 32.3 °F /  0.2 °C 29.84in /  1010.4hPa ENE 4mph /  6.4km/h 10mph /  16.1km/h 46% 0in /  0mm 0.00 W/m2
21:19 52.3 °F /  11.3 °C 32.1 °F /  0.1 °C 29.83in /  1010hPa ENE 7mph /  11.3km/h 11mph /  17.7km/h 46% 0in /  0mm 0.00 W/m2
21:24 52.2 °F /  11.2 °C 31.5 °F /  -0.3 °C 29.83in /  1010hPa NE 9mph /  14.5km/h 14mph /  22.5km/h 45% 0in /  0mm 0.00 W/m2
21:29 52.2 °F /  11.2 °C 30.9 °F /  -0.6 °C 29.84in /  1010.4hPa ENE 9mph /  14.5km/h 15mph /  24.1km/h 44% 0in /  0mm 0.00 W/m2
21:34 52.1 °F /  11.2 °C 30.8 °F /  -0.7 °C 29.84in /  1010.4hPa ENE 11mph /  17.7km/h 15mph /  24.1km/h 44% 0in /  0mm 0.00 W/m2
21:39 52.1 °F /  11.2 °C 30.3 °F /  -0.9 °C 29.84in /  1010.4hPa East 5mph /  8km/h 14mph /  22.5km/h 43% 0in /  0mm 0.00 W/m2
21:44 51.9 °F /  11.1 °C 30.1 °F /  -1.1 °C 29.84in /  1010.4hPa East 9mph /  14.5km/h 14mph /  22.5km/h 43% 0in /  0mm 0.00 W/m2
21:49 51.7 °F /  10.9 °C 30.5 °F /  -0.8 °C 29.85in /  1010.7hPa East 9mph /  14.5km/h 14mph /  22.5km/h 44% 0in /  0mm 0.00 W/m2
21:54 51.6 °F /  10.9 °C 30.4 °F /  -0.9 °C 29.85in /  1010.7hPa ENE 7mph /  11.3km/h 14mph /  22.5km/h 44% 0in /  0mm 0.00 W/m2
21:59 51.5 °F /  10.8 °C 30.3 °F /  -0.9 °C 29.85in /  1010.7hPa NE 6mph /  9.7km/h 14mph /  22.5km/h 44% 0in /  0mm 0.00 W/m2
22:04 51.5 °F /  10.8 °C 30.8 °F /  -0.7 °C 29.85in /  1010.7hPa East 9mph /  14.5km/h 15mph /  24.1km/h 45% 0in /  0mm 0.00 W/m2
22:09 51.4 °F /  10.8 °C 30.7 °F /  -0.7 °C 29.85in /  1010.7hPa NE 7mph /  11.3km/h 15mph /  24.1km/h 45% 0in /  0mm 0.00 W/m2
22:14 51.3 °F /  10.7 °C 30.7 °F /  -0.7 °C 29.86in /  1011.1hPa ENE 8mph /  12.9km/h 16mph /  25.7km/h 45% 0in /  0mm 0.00 W/m2
22:19 51.2 °F /  10.7 °C 30.6 °F /  -0.8 °C 29.86in /  1011.1hPa East 6mph /  9.7km/h 16mph /  25.7km/h 45% 0in /  0mm 0.00 W/m2
22:24 51.2 °F /  10.7 °C 30.6 °F /  -0.8 °C 29.86in /  1011.1hPa East 10mph /  16.1km/h 16mph /  25.7km/h 45% 0in /  0mm 0.00 W/m2
22:29 51.1 °F /  10.6 °C 30.5 °F /  -0.8 °C 29.86in /  1011.1hPa ENE 12mph /  19.3km/h 16mph /  25.7km/h 45% 0in /  0mm 0.00 W/m2
22:34 51.1 °F /  10.6 °C 30.5 °F /  -0.8 °C 29.86in /  1011.1hPa East 13mph /  20.9km/h 17mph /  27.4km/h 45% 0in /  0mm 0.00 W/m2
22:39 51.1 °F /  10.6 °C 30.5 °F /  -0.8 °C 29.86in /  1011.1hPa ENE 13mph /  20.9km/h 17mph /  27.4km/h 45% 0in /  0mm 0.00 W/m2
22:44 51.1 °F /  10.6 °C 30.5 °F /  -0.8 °C 29.86in /  1011.1hPa East 13mph /  20.9km/h 16mph /  25.7km/h 45% 0in /  0mm 0.00 W/m2
22:49 51.1 °F /  10.6 °C 31 °F /  -0.6 °C 29.85in /  1010.7hPa East 13mph /  20.9km/h 16mph /  25.7km/h 46% 0in /  0mm 0.00 W/m2
22:54 50.9 °F /  10.5 °C 31.4 °F /  -0.3 °C 29.85in /  1010.7hPa ENE 6mph /  9.7km/h 18mph /  29km/h 47% 0in /  0mm 0.00 W/m2
22:59 50.8 °F /  10.4 °C 32.3 °F /  0.2 °C 29.85in /  1010.7hPa ENE 9mph /  14.5km/h 18mph /  29km/h 49% 0in /  0mm 0.00 W/m2
23:04 50.7 °F /  10.4 °C 32.2 °F /  0.1 °C 29.86in /  1011.1hPa ENE 9mph /  14.5km/h 18mph /  29km/h 49% 0in /  0mm 0.00 W/m2
23:09 50.7 °F /  10.4 °C 32.7 °F /  0.4 °C 29.85in /  1010.7hPa ENE 14mph /  22.5km/h 18mph /  29km/h 50% 0in /  0mm 0.00 W/m2
23:14 50.7 °F /  10.4 °C 32.7 °F /  0.4 °C 29.85in /  1010.7hPa ENE 6mph /  9.7km/h 16mph /  25.7km/h 50% 0in /  0mm 0.00 W/m2
23:19 50.6 °F /  10.3 °C 32.6 °F /  0.3 °C 29.84in /  1010.4hPa NE 13mph /  20.9km/h 16mph /  25.7km/h 50% 0in /  0mm 0.00 W/m2
23:24 50.5 °F /  10.3 °C 32.5 °F /  0.3 °C 29.84in /  1010.4hPa ENE 12mph /  19.3km/h 17mph /  27.4km/h 50% 0in /  0mm 0.00 W/m2
23:29 50.6 °F /  10.3 °C 32.1 °F /  0.1 °C 29.84in /  1010.4hPa ENE 10mph /  16.1km/h 17mph /  27.4km/h 49% 0in /  0mm 0.00 W/m2
23:34 50.5 °F /  10.3 °C 32 °F /  0 °C 29.84in /  1010.4hPa ENE 7mph /  11.3km/h 17mph /  27.4km/h 49% 0in /  0mm 0.00 W/m2
23:39 50.5 °F /  10.3 °C 32 °F /  0 °C 29.84in /  1010.4hPa East 10mph /  16.1km/h 16mph /  25.7km/h 49% 0in /  0mm 0.00 W/m2
23:44 50.5 °F /  10.3 °C 32 °F /  0 °C 29.84in /  1010.4hPa East 14mph /  22.5km/h 16mph /  25.7km/h 49% 0in /  0mm 0.00 W/m2
23:49 50.4 °F /  10.2 °C 32.4 °F /  0.2 °C 29.83in /  1010hPa East 8mph /  12.9km/h 16mph /  25.7km/h 50% 0in /  0mm 0.00 W/m2
23:54 50.3 °F /  10.2 °C 32.4 °F /  0.2 °C 29.83in /  1010hPa ENE 8mph /  12.9km/h 16mph /  25.7km/h 50% 0in /  0mm 0.00 W/m2
23:59 50.2 °F /  10.1 °C 32.3 °F /  0.2 °C 29.82in /  1009.7hPa East 8mph /  12.9km/h 16mph /  25.7km/h 50% 0in /  0mm 0.00 W/m2
Bismarck, North Dakota, USA
Compliments of Weather Underground - 4 mb